Time;durP1;ratioP1;P1;durP2;ratioP2;P2;SDS_P1;SDS_P2;PMS_P1;PMS_P2;Temp;Humidity;BMP_temperature;BMP_pressure;BME280_temperature;BME280_humidity;BME280_pressure;Samples;Min_cycle;Max_cycle;Signal;HPM_P1;HPM_P2
2023/06/12 00:01:44;;;;;;;0.05;0.05;;;15.90;99.90;;;;;;5034057;28;20045;-86
2023/06/12 00:04:10;;;;;;;0.20;0.20;;;15.90;99.90;;;;;;5031907;28;20060;-86
2023/06/12 00:06:37;;;;;;;0.00;0.00;;;16.30;99.90;;;;;;5034530;28;20084;-86
2023/06/12 00:09:06;;;;;;;0.00;0.00;;;15.70;99.90;;;;;;5034292;28;20068;-87
2023/06/12 00:11:32;;;;;;;7.13;0.55;;;15.80;99.90;;;;;;5033635;28;20052;-86
2023/06/12 00:13:58;;;;;;;1.65;0.63;;;15.70;99.90;;;;;;5033548;28;20045;-86
2023/06/12 00:16:24;;;;;;;0.30;0.30;;;16.30;99.90;;;;;;5032526;28;20152;-86
2023/06/12 00:18:51;;;;;;;1.25;0.70;;;16.00;99.90;;;;;;5031683;28;20057;-87
2023/06/12 00:21:19;;;;;;;1.92;0.52;;;15.60;99.90;;;;;;5034350;28;20099;-86
2023/06/12 00:23:46;;;;;;;0.73;0.38;;;15.60;99.90;;;;;;5031371;28;20045;-88
2023/06/12 00:26:11;;;;;;;0.05;0.05;;;15.60;99.90;;;;;;5033319;28;20049;-87
2023/06/12 00:28:37;;;;;;;0.43;0.32;;;15.50;99.90;;;;;;5031970;28;20099;-87
2023/06/12 00:31:03;;;;;;;0.00;0.00;;;15.70;99.90;;;;;;5034340;28;20052;-86
2023/06/12 00:33:29;;;;;;;0.20;0.13;;;15.50;99.90;;;;;;5033588;28;20053;-86
2023/06/12 00:35:54;;;;;;;0.05;0.03;;;15.60;99.90;;;;;;5034203;28;20042;-86
2023/06/12 00:38:21;;;;;;;0.52;0.47;;;15.60;99.90;;;;;;5031971;28;20139;-86
2023/06/12 00:40:47;;;;;;;0.08;0.08;;;16.80;99.90;;;;;;5034716;28;20037;-86
2023/06/12 00:43:13;;;;;;;2.28;1.27;;;15.60;99.90;;;;;;5032491;28;20420;-86
2023/06/12 00:45:39;;;;;;;0.17;0.17;;;15.80;99.90;;;;;;5033658;28;20041;-86
2023/06/12 00:48:06;;;;;;;0.00;0.00;;;15.60;99.90;;;;;;5032703;28;20042;-87
2023/06/12 00:50:33;;;;;;;0.30;0.30;;;15.50;99.90;;;;;;5034186;28;20038;-85
2023/06/12 00:52:59;;;;;;;0.22;0.17;;;15.40;1.00;;;;;;5033056;28;20069;-86
2023/06/12 00:55:26;;;;;;;0.00;0.00;;;15.50;1.00;;;;;;5033043;28;20125;-86
2023/06/12 00:57:52;;;;;;;0.00;0.00;;;15.40;1.00;;;;;;5016011;28;20120;-86
2023/06/12 01:00:19;;;;;;;0.13;0.10;;;15.50;1.00;;;;;;5032831;28;20073;-86
2023/06/12 01:02:50;;;;;;;0.08;0.03;;;15.40;1.00;;;;;;5033902;28;20579;-86
2023/06/12 01:05:19;;;;;;;0.85;0.63;;;15.40;1.00;;;;;;5034245;28;20045;-87
2023/06/12 01:07:56;;;;;;;0.10;0.03;;;15.70;1.00;;;;;;5032102;28;20046;-86
2023/06/12 01:10:33;;;;;;;1.17;0.20;;;15.40;1.00;;;;;;5032756;28;20059;-86
2023/06/12 01:12:59;;;;;;;0.35;0.25;;;16.10;1.00;;;;;;5048685;28;20121;-86
2023/06/12 01:15:25;;;;;;;0.10;0.10;;;15.20;53.50;;;;;;5016286;28;20138;-86
2023/06/12 01:17:51;;;;;;;0.00;0.00;;;16.00;99.90;;;;;;5033302;28;20049;-87
2023/06/12 01:20:20;;;;;;;0.90;0.63;;;15.40;99.90;;;;;;5033028;28;20053;-86
2023/06/12 01:23:25;;;;;;;0.25;0.25;;;15.10;99.90;;;;;;5031510;28;20045;-86
2023/06/12 01:26:01;;;;;;;0.05;0.05;;;14.90;1.00;;;;;;5011956;28;20057;-86
2023/06/12 01:28:51;;;;;;;0.52;0.43;;;15.00;13.50;;;;;;5034008;28;20050;-86
2023/06/12 01:31:34;;;;;;;0.08;0.08;;;14.70;99.90;;;;;;5032232;28;20100;-86
2023/06/12 01:34:12;;;;;;;0.20;0.20;;;14.70;99.90;;;;;;5033777;28;20145;-86
2023/06/12 01:36:41;;;;;;;0.20;0.20;;;14.50;84.40;;;;;;5033503;28;20053;-86
2023/06/12 01:39:08;;;;;;;0.50;0.35;;;14.50;99.90;;;;;;5032546;28;20306;-86
2023/06/12 01:41:35;;;;;;;0.45;0.40;;;14.40;99.90;;;;;;5032732;28;20050;-86
2023/06/12 01:44:10;;;;;;;0.05;0.05;;;14.60;24.00;;;;;;5032158;28;20101;-86
2023/06/12 01:46:36;;;;;;;0.08;0.08;;;14.30;99.90;;;;;;5033588;28;20128;-86
2023/06/12 01:49:08;;;;;;;0.00;0.00;;;14.30;99.90;;;;;;5033490;28;20041;-86
2023/06/12 01:51:34;;;;;;;0.32;0.28;;;14.90;99.90;;;;;;5035924;28;20103;-86
2023/06/12 01:54:00;;;;;;;1.38;0.40;;;14.20;99.90;;;;;;5035577;28;20073;-86
2023/06/12 01:56:27;;;;;;;2.80;0.47;;;15.40;1.00;;;;;;5036610;28;20045;-86
2023/06/12 01:58:53;;;;;;;0.20;0.20;;;14.10;99.90;;;;;;5036588;28;20292;-86
2023/06/12 02:01:19;;;;;;;0.20;0.20;;;14.00;1.00;;;;;;5035228;28;20484;-86
2023/06/12 02:03:48;;;;;;;1.67;1.55;;;13.90;1.00;;;;;;5035574;28;20048;-86
2023/06/12 02:06:17;;;;;;;0.20;0.20;;;13.90;35.50;;;;;;5036726;28;20376;-86
2023/06/12 02:08:43;;;;;;;0.00;0.00;;;13.80;99.90;;;;;;5037066;28;20113;-86
2023/06/12 02:11:09;;;;;;;0.88;0.30;;;13.70;99.90;;;;;;5036928;28;20072;-86
2023/06/12 02:13:36;;;;;;;0.10;0.10;;;13.50;47.70;;;;;;5035786;28;20049;-86
2023/06/12 02:16:06;;;;;;;0.38;0.15;;;13.40;99.90;;;;;;5051202;28;20053;-86
2023/06/12 02:18:33;;;;;;;0.00;0.00;;;13.30;1.00;;;;;;5036811;28;20125;-86
2023/06/12 02:20:59;;;;;;;0.50;0.32;;;13.20;99.90;;;;;;5036168;28;20053;-86
2023/06/12 02:23:25;;;;;;;1.00;0.38;;;13.10;99.90;;;;;;5036237;28;20048;-86
2023/06/12 02:25:51;;;;;;;0.10;0.10;;;13.10;99.90;;;;;;5035069;28;20046;-85
2023/06/12 02:28:16;;;;;;;0.50;0.50;;;13.10;99.90;;;;;;5051005;28;20045;-87
2023/06/12 02:30:42;;;;;;;0.00;0.00;;;13.10;99.90;;;;;;5051959;28;20056;-86
2023/06/12 02:33:09;;;;;;;0.10;0.10;;;13.10;99.90;;;;;;5036110;28;20049;-86
2023/06/12 02:35:39;;;;;;;0.00;0.00;;;13.00;1.00;;;;;;5018399;28;20434;-87
2023/06/12 02:38:04;;;;;;;0.05;0.05;;;12.80;1.00;;;;;;5034177;28;20049;-86
2023/06/12 02:40:30;;;;;;;0.05;0.05;;;12.70;1.00;;;;;;5035459;28;20084;-86
2023/06/12 02:42:56;;;;;;;0.22;0.15;;;12.70;1.00;;;;;;5034392;28;20049;-86
2023/06/12 02:45:23;;;;;;;0.00;0.00;;;12.80;99.90;;;;;;5035993;28;20084;-86
2023/06/12 02:47:49;;;;;;;1.83;1.45;;;14.10;99.90;;;;;;5037219;28;20404;-86
2023/06/12 02:50:16;;;;;;;0.20;0.20;;;12.80;99.90;;;;;;5039149;28;20045;-86
2023/06/12 02:52:41;;;;;;;0.22;0.20;;;12.90;99.90;;;;;;5034803;28;20057;-86
2023/06/12 02:55:07;;;;;;;0.00;0.00;;;12.80;99.90;;;;;;5017783;28;20053;-86
2023/06/12 02:57:34;;;;;;;0.35;0.35;;;12.70;40.20;;;;;;5035976;28;20400;-86
2023/06/12 03:00:00;;;;;;;0.28;0.28;;;12.90;38.00;;;;;;5035411;28;20567;-87
2023/06/12 03:02:26;;;;;;;3.10;0.52;;;12.60;1.00;;;;;;5033826;28;20061;-86
2023/06/12 03:04:55;;;;;;;0.00;0.00;;;13.90;24.80;;;;;;5035621;28;20567;-86
2023/06/12 03:07:21;;;;;;;0.00;0.00;;;12.50;99.90;;;;;;5035324;28;20079;-86
2023/06/12 03:09:47;;;;;;;0.38;0.38;;;12.50;99.90;;;;;;5034231;28;20072;-86
2023/06/12 03:12:13;;;;;;;0.03;0.03;;;12.40;99.90;;;;;;5035476;28;20124;-86
2023/06/12 03:14:39;;;;;;;3.50;1.42;;;12.40;99.90;;;;;;5036017;28;20060;-86
2023/06/12 03:17:05;;;;;;;0.00;0.00;;;12.30;1.00;;;;;;5033276;28;20042;-86
2023/06/12 03:19:31;;;;;;;0.00;0.00;;;12.30;57.50;;;;;;5018470;28;20049;-86
2023/06/12 03:21:58;;;;;;;0.38;0.35;;;12.40;12.00;;;;;;5036303;28;20506;-86
2023/06/12 03:24:26;;;;;;;0.00;0.00;;;12.50;12.70;;;;;;5035571;28;20045;-86
2023/06/12 03:26:54;;;;;;;1.13;0.55;;;13.70;1.00;;;;;;5035723;28;20126;-86
2023/06/12 03:29:19;;;;;;;0.10;0.10;;;12.40;21.40;;;;;;5054987;28;20580;-86
2023/06/12 03:31:45;;;;;;;0.40;0.30;;;13.30;10.50;;;;;;5039106;28;20084;-86
2023/06/12 03:34:11;;;;;;;1.05;1.05;;;13.60;99.90;;;;;;5021040;28;20060;-86
2023/06/12 03:36:38;;;;;;;0.10;0.10;;;12.70;89.60;;;;;;5041594;28;20048;-86
2023/06/12 03:39:04;;;;;;;1.35;0.75;;;12.50;95.20;;;;;;5040791;28;20037;-87
2023/06/12 03:41:32;;;;;;;0.03;0.03;;;12.60;99.90;;;;;;5037493;28;20052;-87
2023/06/12 03:43:58;;;;;;;0.03;0.03;;;13.90;99.90;;;;;;5033371;28;20416;-86
2023/06/12 03:46:24;;;;;;;0.00;0.00;;;12.60;60.10;;;;;;5049763;28;20129;-87
2023/06/12 03:48:50;;;;;;;0.17;0.17;;;12.70;92.00;;;;;;5032891;28;20077;-87
2023/06/12 03:51:16;;;;;;;0.70;0.40;;;12.80;99.90;;;;;;5033174;28;20053;-86
2023/06/12 03:53:42;;;;;;;0.73;0.50;;;12.90;99.90;;;;;;5035061;28;20057;-87
2023/06/12 03:56:08;;;;;;;1.95;0.55;;;12.90;82.30;;;;;;5035108;28;20492;-87
2023/06/12 03:58:34;;;;;;;0.10;0.10;;;12.90;93.10;;;;;;5033226;28;20144;-87
2023/06/12 04:01:00;;;;;;;0.20;0.13;;;13.00;99.90;;;;;;5032983;28;20105;-87
2023/06/12 04:03:26;;;;;;;0.00;0.00;;;13.10;75.10;;;;;;5034083;28;20225;-87
2023/06/12 04:05:52;;;;;;;13.15;0.45;;;13.10;57.10;;;;;;5034209;28;20102;-87
2023/06/12 04:08:18;;;;;;;0.25;0.20;;;13.10;63.60;;;;;;5032890;28;20057;-87
2023/06/12 04:10:44;;;;;;;0.65;0.32;;;13.20;9.00;;;;;;5032873;28;20060;-87
2023/06/12 04:13:10;;;;;;;0.00;0.00;;;13.20;1.00;;;;;;5033996;28;20049;-86
2023/06/12 04:15:37;;;;;;;0.10;0.10;;;13.50;1.00;;;;;;5032907;28;20128;-87
2023/06/12 04:18:04;;;;;;;1.70;1.05;;;13.20;17.10;;;;;;5032154;28;20103;-87
2023/06/12 04:20:32;;;;;;;0.00;0.00;;;13.30;3.90;;;;;;5033206;28;20145;-87
2023/06/12 04:22:58;;;;;;;0.00;0.00;;;13.90;32.00;;;;;;5033283;28;20049;-87
2023/06/12 04:25:27;;;;;;;0.80;0.45;;;13.60;31.80;;;;;;5031387;28;20053;-87
2023/06/12 04:27:53;;;;;;;2.15;0.47;;;13.80;1.00;;;;;;5047518;28;20126;-87
2023/06/12 04:30:21;;;;;;;0.85;0.85;;;14.00;1.00;;;;;;5032991;28;20097;-87
2023/06/12 04:32:47;;;;;;;0.43;0.22;;;14.30;48.20;;;;;;5032684;28;20113;-87
2023/06/12 04:35:16;;;;;;;0.90;0.20;;;15.00;99.90;;;;;;5034056;28;20050;-87
2023/06/12 04:37:42;;;;;;;0.20;0.10;;;14.60;99.90;;;;;;5032822;28;20385;-86
2023/06/12 04:40:11;;;;;;;0.10;0.10;;;15.90;1.00;;;;;;5033621;28;20049;-87
2023/06/12 04:42:37;;;;;;;1.85;0.90;;;14.60;99.90;;;;;;5048447;28;20049;-87
2023/06/12 04:45:04;;;;;;;0.35;0.32;;;14.60;99.90;;;;;;5032609;28;20049;-87
2023/06/12 04:47:30;;;;;;;0.28;0.25;;;14.70;99.90;;;;;;5047624;28;20049;-87
2023/06/12 04:49:57;;;;;;;0.13;0.10;;;15.00;99.90;;;;;;5032787;28;20056;-87
2023/06/12 04:52:24;;;;;;;0.00;0.00;;;15.80;99.90;;;;;;5032288;28;20076;-87
2023/06/12 04:54:52;;;;;;;0.35;0.28;;;16.60;92.20;;;;;;5032639;28;20449;-87
2023/06/12 04:57:18;;;;;;;0.00;0.00;;;18.20;99.90;;;;;;5032254;28;20057;-87
2023/06/12 04:59:45;;;;;;;0.30;0.28;;;18.80;1.00;;;;;;5047571;28;20045;-87
2023/06/12 05:02:14;;;;;;;1.17;0.47;;;18.40;99.90;;;;;;5031564;28;20504;-88
2023/06/12 05:04:40;;;;;;;0.60;0.43;;;19.00;99.90;;;;;;5030250;28;20048;-87
2023/06/12 05:07:14;;;;;;;0.32;0.25;;;19.10;1.00;;;;;;5031775;28;20045;-87
2023/06/12 05:09:46;;;;;;;0.52;0.43;;;19.40;1.00;;;;;;5031082;28;20476;-87
2023/06/12 05:12:12;;;;;;;0.00;0.00;;;19.60;99.90;;;;;;5030739;28;20052;-87
2023/06/12 05:14:43;;;;;;;0.80;0.40;;;19.90;99.90;;;;;;5030827;28;20065;-87
2023/06/12 05:17:09;;;;;;;0.38;0.38;;;21.20;99.90;;;;;;5032412;28;20050;-87
2023/06/12 05:19:38;;;;;;;1.45;0.90;;;20.40;99.90;;;;;;5031711;28;20049;-87
2023/06/12 05:22:04;;;;;;;0.57;0.32;;;20.60;99.90;;;;;;5031792;28;20087;-87
2023/06/12 05:24:30;;;;;;;0.60;0.55;;;20.60;99.90;;;;;;5047406;28;20041;-87
2023/06/12 05:26:55;;;;;;;0.25;0.20;;;20.90;99.90;;;;;;5051151;28;20120;-87
2023/06/12 05:29:21;;;;;;;1.17;0.50;;;21.00;99.90;;;;;;5036031;28;20048;-87
2023/06/12 05:31:47;;;;;;;0.10;0.10;;;21.10;99.90;;;;;;5035722;28;20107;-87
2023/06/12 05:34:13;;;;;;;0.82;0.28;;;21.60;99.90;;;;;;5035198;28;20049;-88
2023/06/12 05:36:38;;;;;;;0.47;0.47;;;21.60;99.90;;;;;;5036112;28;20052;-87
2023/06/12 05:39:04;;;;;;;1.13;0.22;;;22.00;99.90;;;;;;5036598;28;20045;-87
2023/06/12 05:41:31;;;;;;;2.72;0.28;;;22.80;99.90;;;;;;5036059;28;20045;-88
2023/06/12 05:43:56;;;;;;;1.40;0.40;;;22.70;99.90;;;;;;5035471;28;20046;-89
2023/06/12 05:46:22;;;;;;;0.47;0.47;;;21.90;99.90;;;;;;5035603;28;20045;-87
2023/06/12 05:48:49;;;;;;;1.05;0.73;;;22.00;99.90;;;;;;5033929;28;20059;-87
2023/06/12 05:51:15;;;;;;;1.05;0.65;;;22.30;99.90;;;;;;5033778;28;20080;-88
2023/06/12 05:53:44;;;;;;;1.20;0.45;;;22.90;99.90;;;;;;5034581;28;20053;-87
2023/06/12 05:56:12;;;;;;;0.20;0.20;;;23.40;99.90;;;;;;5032394;28;20404;-88
2023/06/12 05:58:44;;;;;;;0.35;0.35;;;23.10;99.90;;;;;;5033695;28;20053;-88
2023/06/12 06:01:11;;;;;;;0.68;0.45;;;23.30;99.90;;;;;;5037847;28;20054;-87
2023/06/12 06:03:45;;;;;;;0.70;0.60;;;23.60;99.90;;;;;;5020726;28;20085;-88
2023/06/12 06:06:15;;;;;;;0.30;0.20;;;23.30;99.90;;;;;;5038743;28;20049;-88
2023/06/12 06:08:41;;;;;;;2.55;0.88;;;24.00;99.90;;;;;;5036446;28;20057;-88
2023/06/12 06:11:07;;;;;;;1.20;1.05;;;23.30;42.50;;;;;;5037304;28;20056;-88
2023/06/12 06:13:32;;;;;;;1.10;1.00;;;23.50;45.90;;;;;;5036687;28;20530;-88
2023/06/12 06:15:58;;;;;;;0.52;0.47;;;23.70;49.30;;;;;;5030215;28;20045;-88
2023/06/12 06:18:24;;;;;;;1.60;0.93;;;24.40;54.20;;;;;;5026330;28;20049;-88
2023/06/12 06:20:50;;;;;;;2.97;0.68;;;24.20;34.60;;;;;;5026635;28;20180;-88
2023/06/12 06:23:16;;;;;;;5.38;1.65;;;24.50;30.80;;;;;;5026396;28;20037;-88
2023/06/12 06:25:43;;;;;;;0.35;0.35;;;25.00;50.10;;;;;;5026481;28;20047;-88
2023/06/12 06:28:08;;;;;;;0.88;0.30;;;25.50;50.30;;;;;;5024815;28;20083;-88
2023/06/12 06:30:34;;;;;;;0.43;0.30;;;26.00;40.40;;;;;;5028757;28;20037;-88
2023/06/12 06:33:00;;;;;;;6.55;1.33;;;26.10;31.40;;;;;;5030491;28;20061;-88
2023/06/12 06:35:26;;;;;;;0.32;0.28;;;26.50;45.80;;;;;;5028857;28;20049;-88
2023/06/12 06:37:52;;;;;;;0.95;0.63;;;27.00;35.50;;;;;;5024882;28;20047;-88
2023/06/12 06:40:18;;;;;;;8.05;1.00;;;27.40;44.30;;;;;;5024557;28;20140;-88
2023/06/12 06:42:43;;;;;;;0.82;0.70;;;28.10;29.90;;;;;;5026210;28;20103;-88
2023/06/12 06:45:10;;;;;;;0.95;0.85;;;28.10;29.30;;;;;;5026026;28;20045;-88
2023/06/12 06:47:35;;;;;;;0.10;0.10;;;27.70;13.60;;;;;;5025492;28;20045;-88
2023/06/12 06:50:02;;;;;;;0.10;0.10;;;27.50;9.90;;;;;;5025529;28;20053;-88
2023/06/12 06:52:27;;;;;;;0.38;0.38;;;27.50;9.40;;;;;;5025481;28;20939;-88
2023/06/12 06:54:53;;;;;;;0.08;0.08;;;28.20;19.80;;;;;;5023983;28;20049;-88
2023/06/12 06:57:20;;;;;;;0.65;0.35;;;27.70;1.00;;;;;;5025894;28;20425;-88
2023/06/12 06:59:46;;;;;;;1.25;0.65;;;27.60;1.00;;;;;;5024023;28;20500;-88
2023/06/12 07:02:11;;;;;;;0.65;0.55;;;28.00;1.20;;;;;;5025551;28;20045;-88
2023/06/12 07:04:37;;;;;;;0.38;0.20;;;28.60;9.00;;;;;;5025838;28;20209;-88
2023/06/12 07:07:03;;;;;;;0.35;0.22;;;29.40;21.90;;;;;;5025705;28;20120;-87
2023/06/12 07:09:29;;;;;;;3.15;1.65;;;28.10;1.00;;;;;;5025283;28;20447;-88
2023/06/12 07:11:55;;;;;;;4.50;0.75;;;28.20;1.00;;;;;;5024489;28;20449;-88
2023/06/12 07:14:21;;;;;;;1.45;0.63;;;28.60;1.00;;;;;;5023654;28;20168;-88
2023/06/12 07:16:46;;;;;;;2.80;1.15;;;28.80;1.00;;;;;;5024899;28;20045;-88
2023/06/12 07:19:12;;;;;;;4.00;2.10;;;29.40;1.00;;;;;;5025067;28;20077;-88
2023/06/12 07:21:38;;;;;;;2.00;1.17;;;29.80;4.10;;;;;;5023810;28;20546;-88
2023/06/12 07:24:04;;;;;;;0.73;0.43;;;29.60;1.00;;;;;;5025133;28;20083;-88
2023/06/12 07:26:30;;;;;;;11.30;1.15;;;29.50;1.00;;;;;;5025079;28;20049;-88
2023/06/12 07:28:56;;;;;;;1.65;1.05;;;30.00;1.00;;;;;;5025070;28;20083;-88
2023/06/12 07:31:22;;;;;;;1.25;0.52;;;30.40;9.50;;;;;;5024280;28;20049;-88
2023/06/12 07:33:48;;;;;;;0.73;0.52;;;30.50;1.00;;;;;;5024251;28;20080;-88
2023/06/12 07:36:14;;;;;;;0.77;0.73;;;31.00;8.80;;;;;;5024838;28;20107;-88
2023/06/12 07:38:43;;;;;;;0.43;0.22;;;30.90;1.00;;;;;;5038518;28;20114;-88
2023/06/12 07:41:09;;;;;;;0.30;0.30;;;31.40;1.00;;;;;;5006848;28;20053;-88
2023/06/12 07:43:34;;;;;;;0.65;0.40;;;31.30;1.00;;;;;;5023004;28;20041;-89
2023/06/12 07:46:01;;;;;;;8.98;1.15;;;31.40;1.00;;;;;;5024713;28;20543;-88
2023/06/12 07:48:27;;;;;;;0.03;0.03;;;31.90;1.00;;;;;;5024443;28;20396;-88
2023/06/12 07:50:53;;;;;;;1.85;1.02;;;31.90;1.00;;;;;;5024620;28;20052;-88
2023/06/12 07:53:19;;;;;;;0.20;0.20;;;31.60;1.00;;;;;;5024167;28;20498;-88
2023/06/12 07:55:45;;;;;;;3.65;1.02;;;31.30;1.00;;;;;;5022875;28;20192;-88
2023/06/12 07:58:10;;;;;;;0.38;0.38;;;31.70;1.00;;;;;;5024354;28;20084;-88
2023/06/12 08:00:36;;;;;;;1.40;0.73;;;32.30;1.00;;;;;;5024150;28;20492;-88
2023/06/12 08:03:03;;;;;;;0.85;0.63;;;32.50;1.00;;;;;;5024122;28;20045;-88
2023/06/12 08:05:29;;;;;;;1.50;1.00;;;31.70;1.00;;;;;;5023737;28;20067;-88
2023/06/12 08:07:55;;;;;;;1.25;0.80;;;30.90;1.00;;;;;;5023778;28;20412;-88
2023/06/12 08:10:21;;;;;;;2.60;0.65;;;30.90;1.00;;;;;;5023641;28;20061;-88
2023/06/12 08:12:46;;;;;;;1.27;0.45;;;31.70;1.00;;;;;;5023667;28;20056;-88
2023/06/12 08:15:13;;;;;;;0.68;0.45;;;32.20;1.00;;;;;;5024450;28;20057;-88
2023/06/12 08:17:41;;;;;;;0.08;0.08;;;32.40;1.00;;;;;;5023602;28;20091;-88
2023/06/12 08:20:10;;;;;;;1.67;0.80;;;32.50;1.00;;;;;;5023743;28;20053;-88
2023/06/12 08:22:39;;;;;;;0.75;0.43;;;33.20;1.00;;;;;;5022375;28;20132;-88
2023/06/12 08:25:09;;;;;;;0.32;0.32;;;32.60;1.00;;;;;;5023967;28;20071;-88
2023/06/12 08:27:35;;;;;;;1.35;0.70;;;33.40;1.00;;;;;;5023738;28;20049;-88
2023/06/12 08:30:05;;;;;;;0.20;0.15;;;33.60;1.00;;;;;;5023137;28;20500;-88
2023/06/12 08:32:31;;;;;;;0.30;0.30;;;34.10;1.00;;;;;;5021902;28;20060;-88
2023/06/12 08:34:58;;;;;;;0.45;0.40;;;34.10;1.00;;;;;;5023520;28;20502;-88
2023/06/12 08:37:23;;;;;;;0.25;0.25;;;34.80;1.00;;;;;;5023410;28;20050;-88
2023/06/12 08:39:49;;;;;;;0.60;0.30;;;35.20;1.00;;;;;;5023557;28;20042;-88
2023/06/12 08:42:16;;;;;;;3.15;1.77;;;35.40;1.00;;;;;;5023397;28;20053;-88
2023/06/12 08:44:46;;;;;;;1.25;0.80;;;35.50;1.00;;;;;;5023467;28;20136;-88
2023/06/12 08:47:15;;;;;;;0.20;0.20;;;35.70;1.00;;;;;;5022332;28;20526;-88
2023/06/12 08:49:42;;;;;;;1.77;0.93;;;35.60;1.00;;;;;;5023451;28;20053;-88
2023/06/12 08:52:10;;;;;;;0.70;0.52;;;34.80;1.00;;;;;;5022309;28;20064;-88
2023/06/12 08:54:40;;;;;;;1.42;0.98;;;35.20;1.00;;;;;;5023155;28;20098;-89
2023/06/12 08:57:07;;;;;;;0.90;0.20;;;35.20;1.00;;;;;;5023328;28;20061;-88
2023/06/12 08:59:33;;;;;;;0.10;0.10;;;35.20;1.00;;;;;;5023780;28;20045;-88
2023/06/12 09:02:00;;;;;;;0.22;0.20;;;34.70;1.00;;;;;;5027146;28;20046;-88
2023/06/12 09:04:41;;;;;;;1.00;0.90;;;33.70;1.00;;;;;;5027448;28;20049;-88
2023/06/12 09:07:07;;;;;;;0.47;0.45;;;33.40;1.00;;;;;;5025485;28;20088;-88
2023/06/12 09:09:40;;;;;;;0.38;0.38;;;34.00;1.00;;;;;;5025657;28;20057;-88
2023/06/12 09:12:12;;;;;;;0.28;0.28;;;34.30;1.00;;;;;;5027030;28;20046;-88
2023/06/12 09:14:39;;;;;;;1.27;0.17;;;34.80;1.00;;;;;;5025481;28;20099;-88
2023/06/12 09:17:07;;;;;;;1.13;0.60;;;33.90;1.00;;;;;;5027156;28;20068;-88
2023/06/12 09:19:39;;;;;;;0.10;0.10;;;34.40;1.00;;;;;;5027054;28;20099;-88
2023/06/12 09:22:06;;;;;;;0.50;0.40;;;35.20;1.00;;;;;;5027258;28;20053;-88
2023/06/12 09:24:31;;;;;;;0.75;0.47;;;35.70;1.00;;;;;;5026867;28;20160;-88
2023/06/12 09:26:57;;;;;;;0.00;0.00;;;36.10;1.00;;;;;;5026805;28;20095;-88
2023/06/12 09:29:31;;;;;;;0.30;0.30;;;36.50;1.00;;;;;;5027047;28;20088;-88
2023/06/12 09:32:05;;;;;;;13.80;2.00;;;36.80;1.00;;;;;;5026784;28;20057;-89
2023/06/12 09:34:34;;;;;;;0.20;0.17;;;36.90;1.00;;;;;;5027081;28;20045;-89
2023/06/12 09:37:00;;;;;;;4.93;0.98;;;36.50;1.00;;;;;;5027052;28;20136;-89
2023/06/12 09:39:29;;;;;;;3.50;0.95;;;35.30;1.00;;;;;;5027404;28;20136;-88
2023/06/12 09:41:56;;;;;;;0.95;0.60;;;35.60;1.00;;;;;;5026877;28;20045;-88
2023/06/12 09:44:28;;;;;;;0.20;0.10;;;34.50;1.00;;;;;;5025167;28;20045;-88
2023/06/12 09:46:58;;;;;;;0.55;0.43;;;34.70;1.00;;;;;;5025425;28;20139;-88
2023/06/12 09:49:24;;;;;;;1.13;0.85;;;33.90;1.00;;;;;;5026805;28;20057;-88
2023/06/12 09:51:51;;;;;;;0.20;0.20;;;32.60;1.00;;;;;;5026246;28;20041;-89
2023/06/12 09:54:19;;;;;;;0.35;0.30;;;31.40;1.00;;;;;;5026515;28;20542;-88
2023/06/12 09:56:46;;;;;;;0.43;0.40;;;32.20;1.00;;;;;;5026963;28;20067;-88
2023/06/12 09:59:17;;;;;;;0.75;0.50;;;31.80;1.00;;;;;;5011531;28;20133;-88
2023/06/12 10:01:46;;;;;;;0.20;0.10;;;32.40;1.00;;;;;;5024776;28;20049;-88
2023/06/12 10:04:17;;;;;;;4.68;1.08;;;32.90;1.00;;;;;;5026850;28;20815;-88
2023/06/12 10:06:48;;;;;;;0.38;0.32;;;32.60;1.00;;;;;;5027304;28;20057;-88
2023/06/12 10:09:14;;;;;;;0.88;0.63;;;31.40;1.00;;;;;;5026552;28;20046;-88
2023/06/12 10:11:41;;;;;;;0.50;0.50;;;31.80;1.00;;;;;;5026800;28;20053;-88
2023/06/12 10:14:06;;;;;;;0.30;0.25;;;32.20;1.00;;;;;;5026369;28;20081;-88
2023/06/12 10:16:34;;;;;;;0.47;0.30;;;31.90;1.00;;;;;;5026200;28;20088;-88
2023/06/12 10:19:01;;;;;;;0.73;0.55;;;31.40;1.00;;;;;;5026009;28;20103;-88
2023/06/12 10:21:30;;;;;;;1.00;0.77;;;31.70;1.00;;;;;;5025951;28;20049;-88
2023/06/12 10:23:57;;;;;;;1.65;0.77;;;31.80;1.00;;;;;;5025783;28;20101;-88
2023/06/12 10:26:23;;;;;;;1.00;0.65;;;31.80;1.00;;;;;;5025766;28;20049;-88
2023/06/12 10:28:49;;;;;;;3.00;1.70;;;31.80;1.00;;;;;;5025723;28;20053;-88
2023/06/12 10:31:19;;;;;;;2.50;0.90;;;31.80;1.00;;;;;;5025378;28;20128;-88
2023/06/12 10:34:00;;;;;;;1.75;0.85;;;31.50;1.00;;;;;;5025535;28;20057;-88
2023/06/12 10:36:43;;;;;;;2.78;0.77;;;31.60;1.00;;;;;;5025366;28;20045;-88
2023/06/12 10:39:22;;;;;;;2.03;1.15;;;31.60;1.00;;;;;;5025393;28;20500;-88
2023/06/12 10:42:07;;;;;;;0.38;0.28;;;31.10;1.00;;;;;;5025336;28;20056;-88
2023/06/12 10:44:43;;;;;;;10.45;0.98;;;31.50;1.00;;;;;;5025596;28;20041;-88
2023/06/12 10:47:21;;;;;;;0.10;0.10;;;31.90;1.00;;;;;;5025427;28;20112;-88
2023/06/12 10:50:02;;;;;;;0.90;0.47;;;32.40;1.00;;;;;;5025333;28;20423;-88
2023/06/12 10:52:28;;;;;;;0.22;0.22;;;32.60;1.00;;;;;;5025090;28;20060;-88
2023/06/12 10:55:12;;;;;;;0.15;0.10;;;32.80;1.00;;;;;;5026622;28;20384;-89
2023/06/12 10:57:38;;;;;;;0.30;0.30;;;32.30;1.00;;;;;;5026807;28;20057;-89
2023/06/12 11:00:10;;;;;;;1.38;1.05;;;32.30;1.00;;;;;;5027502;28;20103;-88
2023/06/12 11:02:36;;;;;;;0.77;0.52;;;32.70;1.00;;;;;;5026297;28;20049;-88
2023/06/12 11:05:03;;;;;;;1.48;0.47;;;32.60;1.00;;;;;;5034874;28;20500;-89
2023/06/12 11:07:31;;;;;;;0.52;0.47;;;32.40;1.00;;;;;;5047627;28;20125;-88
2023/06/12 11:09:57;;;;;;;2.15;1.27;;;32.40;1.00;;;;;;5050815;28;20041;-88
2023/06/12 11:12:26;;;;;;;1.98;1.13;;;33.00;1.00;;;;;;5049239;28;20064;-89
2023/06/12 11:14:51;;;;;;;9.85;0.88;;;32.20;1.00;;;;;;5048363;28;20049;-88
2023/06/12 11:17:17;;;;;;;0.77;0.63;;;31.90;1.00;;;;;;5049766;28;20034;-88
2023/06/12 11:19:42;;;;;;;0.45;0.28;;;32.00;1.00;;;;;;5047099;28;20053;-88
2023/06/12 11:22:08;;;;;;;0.68;0.55;;;32.40;1.00;;;;;;5044195;28;20049;-88
2023/06/12 11:24:35;;;;;;;0.45;0.28;;;32.70;1.00;;;;;;5036673;28;20072;-88
2023/06/12 11:27:02;;;;;;;0.80;0.50;;;32.30;1.00;;;;;;5047355;28;20118;-89
2023/06/12 11:29:34;;;;;;;0.73;0.47;;;32.10;99.90;;;;;;5048426;28;20089;-88
2023/06/12 11:32:04;;;;;;;3.13;0.75;;;33.10;1.00;;;;;;5048972;28;20034;-89
2023/06/12 11:34:36;;;;;;;0.75;0.60;;;33.70;1.00;;;;;;5047311;28;20053;-88
2023/06/12 11:37:17;;;;;;;0.95;0.35;;;34.80;1.00;;;;;;5048767;28;20034;-88
2023/06/12 11:39:43;;;;;;;0.52;0.40;;;35.20;1.00;;;;;;5045274;28;20046;-88
2023/06/12 11:42:13;;;;;;;0.17;0.17;;;35.00;99.90;;;;;;5049811;28;20053;-89
2023/06/12 11:44:39;;;;;;;0.20;0.20;;;35.90;1.00;;;;;;5047768;28;20202;-88
2023/06/12 11:47:07;;;;;;;0.85;0.63;;;36.80;1.00;;;;;;5029807;28;20053;-88
2023/06/12 11:49:37;;;;;;;2.28;1.25;;;36.70;99.90;;;;;;5027104;28;20112;-89
2023/06/12 11:52:04;;;;;;;0.35;0.35;;;36.20;99.90;;;;;;5028437;28;20057;-89
2023/06/12 11:54:31;;;;;;;7.55;1.05;;;35.20;99.90;;;;;;5026300;28;20056;-88
2023/06/12 11:57:02;;;;;;;0.43;0.35;;;35.80;99.90;;;;;;5026415;28;20917;-89
2023/06/12 11:59:37;;;;;;;1.75;1.17;;;36.20;99.90;;;;;;5025768;28;20049;-88
2023/06/12 12:02:03;;;;;;;4.07;1.27;;;36.60;99.90;;;;;;5026186;28;20062;-89
2023/06/12 12:04:30;;;;;;;0.63;0.60;;;37.10;99.90;;;;;;5026105;28;20056;-89
2023/06/12 12:06:58;;;;;;;3.60;1.02;;;36.40;99.90;;;;;;5026048;28;20057;-88
2023/06/12 12:09:27;;;;;;;1.13;0.65;;;34.40;99.90;;;;;;5025798;28;20093;-88
2023/06/12 12:11:53;;;;;;;0.32;0.32;;;32.90;99.90;;;;;;5026791;28;20107;-88
2023/06/12 12:14:19;;;;;;;1.50;1.33;;;32.90;99.90;;;;;;5025156;28;20165;-89
2023/06/12 12:16:45;;;;;;;1.17;0.60;;;33.00;99.90;;;;;;5024685;28;20060;-88
2023/06/12 12:19:29;;;;;;;1.45;1.00;;;33.80;99.90;;;;;;5025881;28;20052;-88
2023/06/12 12:21:58;;;;;;;1.63;0.63;;;34.00;99.90;;;;;;5023968;28;20053;-88
2023/06/12 12:24:24;;;;;;;4.13;0.73;;;35.10;99.90;;;;;;5025103;28;20049;-89
2023/06/12 12:26:51;;;;;;;3.05;0.52;;;36.20;99.90;;;;;;5024860;28;20056;-89
2023/06/12 12:29:21;;;;;;;0.75;0.45;;;37.10;99.90;;;;;;5024626;28;20042;-88
2023/06/12 12:31:47;;;;;;;0.20;0.20;;;37.90;99.90;;;;;;5025179;28;20060;-89
2023/06/12 12:34:13;;;;;;;0.32;0.32;;;38.50;99.90;;;;;;5024203;28;20045;-89
2023/06/12 12:36:40;;;;;;;1.10;0.88;;;38.30;99.90;;;;;;5024741;28;20131;-89
2023/06/12 12:39:06;;;;;;;0.57;0.57;;;37.40;99.90;;;;;;5024693;28;20041;-88
2023/06/12 12:41:32;;;;;;;0.20;0.20;;;36.50;99.90;;;;;;5024993;28;20458;-89
2023/06/12 12:43:58;;;;;;;1.08;0.80;;;36.30;99.90;;;;;;5025678;28;20045;-89
2023/06/12 12:46:25;;;;;;;0.80;0.60;;;35.80;99.90;;;;;;5025495;28;20048;-89
2023/06/12 12:48:52;;;;;;;0.50;0.50;;;35.70;99.90;;;;;;5025212;28;20523;-88
2023/06/12 12:51:20;;;;;;;1.35;0.85;;;36.30;99.90;;;;;;5025872;28;20479;-88
2023/06/12 12:53:46;;;;;;;10.68;1.27;;;37.50;99.90;;;;;;5025928;28;20126;-89